This is the latest recevied weather packets stored in our database for station/object EA2RCU-15. If no packets are shown the sender has not sent any weather packets the latest 10 day(s).
| Time | Temp. | Humidity | Pressure | Rain* | Wind** | Luminosity | Snow |
|---|---|---|---|---|---|---|---|
| 1778073005 | 16.67° C | 48% | 996 hPa | 0 mm | - | - | - |
| 1778072705 | 16.11° C | 48% | 996 hPa | 0 mm | - | - | - |
| 1778072405 | 16.11° C | 49% | 996 hPa | 0 mm | - | - | - |
| 1778072105 | 16.11° C | 48% | 1044 hPa | 0 mm | - | - | - |
| 1778071805 | 15.56° C | 48% | 1044 hPa | 0 mm | - | - | - |
| 1778071506 | 15.56° C | 47% | 1044 hPa | 0 mm | - | - | - |
| 1778071205 | 16.11° C | 46% | 996 hPa | 0 mm | - | - | - |
| 1778070905 | 16.11° C | 45% | 996 hPa | 0 mm | - | - | - |
| 1778070606 | 16.67° C | 45% | 996 hPa | 0 mm | - | - | - |
| 1778070305 | 16.67° C | 45% | 996 hPa | 0 mm | - | - | - |
| 1778070005 | 16.67° C | 44% | 996 hPa | 0 mm | - | - | - |
| 1778069705 | 17.22° C | 42% | 996 hPa | 0 mm | - | - | - |
| 1778069405 | 17.78° C | 40% | 997 hPa | 0 mm | - | - | - |
| 1778069105 | 17.78° C | 40% | 997 hPa | 0 mm | - | - | - |
| 1778068805 | 17.78° C | 41% | 997 hPa | 0 mm | - | - | - |
| 1778068505 | 17.78° C | 44% | 997 hPa | 0 mm | - | - | - |
| 1778068205 | 17.22° C | 45% | 997 hPa | 0 mm | - | - | - |
| 1778067905 | 16.67° C | 47% | 997 hPa | 0 mm | - | - | - |
| 1778067606 | 16.11° C | 49% | 997 hPa | 0 mm | - | - | - |
| 1778067305 | 16.11° C | 49% | 997 hPa | 0 mm | - | - | - |
| 1778067005 | 16.11° C | 49% | 997 hPa | 0 mm | - | - | - |
| 1778066705 | 16.11° C | 47% | 997 hPa | 0 mm | - | - | - |
| 1778066405 | 16.11° C | 47% | 997 hPa | 0 mm | - | - | - |
| 1778066105 | 16.11° C | 45% | 997 hPa | 0 mm | - | - | - |
| 1778065805 | 16.11° C | 44% | 997 hPa | 0 mm | - | - | - |
* Rain latest hour (hover to see other rain measurements)
** Current wind speed in m/s (hover to see current wind gust speed)